Terminal Aerodrome Forecast
Issued by NWS

Home | Current Version | Previous Version | Text Only | Print | Product List | Glossary On
Versions: 1 2 3 4 5 6 7 8 9 10 11 12 13 14 15
000
FTUS43 KIND 260500
TAFBMG
TAF
KBMG 260521Z 2606/2706 04010KT P6SM BKN015 OVC040
     FM260800 04011KT P6SM SCT020 OVC040
     FM261200 03011KT P6SM SCT040 SCT080 BKN250
     FM261600 02013KT P6SM SCT040 SCT250
     FM270200 36008KT P6SM SCT040
      AMD LTD TO CLD VIS AND WIND TIL 261300=

USA.gov is the U.S. government's official web portal to all federal, state and local government web resources and services.